Jamie Marie — WDE7178 — position and weather

sailwx.info

Track history (hours):
 
Tides and Currents Weather Stations Pressure Air Temp Water Temp Dewpoint Dewpoint Depression Visibility Wind Speed Wind Dir Waves Ship Positions

Jamie Marie

Owner: Jamie Marie, Inc., Aberdeen, WA. More information available from US FCC via Universal Licensing System and Coast Guard Vessel Documentation Center.

Last reported at 2015-Apr-01 14:14 UTC. Time now 2015-Apr-01 17:50 UTC.
Position N 47°03' W 124°48'.

Length 30 m.

Type: Fishing. MMSI: 366425240.

Date/timePositionNaut miles runAvg speedWind from/ knotsBaromVisibWave heightAir tempDewpointWater temp
2015-Apr-01 14:14N 47°03' W 124°48'4 5.1
2015-Apr-01 13:28N 47°01' W 124°43'1 0.7
2015-Apr-01 12:33N 47°01' W 124°44'1 0.6
2015-Apr-01 11:33N 47°01' W 124°45'1 0.7
2015-Apr-01 10:32N 47°02' W 124°46'3 3.1
2015-Apr-01 09:32N 47°01' W 124°41'8 7.2
2015-Apr-01 08:29N 46°59' W 124°31'9 7.3
2015-Apr-01 07:16N 46°57' W 124°18'  
2015-Mar-29 13:11N 46°54' W 124°06'0 0.0
2015-Mar-29 12:10N 46°54' W 124°06'0 0.0
2015-Mar-29 05:12N 46°54' W 124°06'0 0.0
2015-Mar-27 16:22N 46°54' W 124°06'0 0.0
2015-Mar-27 14:13N 46°54' W 124°06'0 0.0
2015-Mar-27 13:28N 46°54' W 124°06'0 0.0
2015-Mar-27 12:22N 46°54' W 124°06'0 0.0
2015-Mar-27 11:21N 46°54' W 124°06'0 0.0
2015-Mar-27 10:31N 46°54' W 124°06'0 0.0
2015-Mar-27 09:19N 46°54' W 124°06'0 0.0
2015-Mar-27 08:33N 46°54' W 124°06'0 0.0
2015-Mar-27 06:33N 46°54' W 124°06'0 0.0
2015-Mar-27 05:30N 46°54' W 124°06'0 0.0
2015-Mar-27 04:29N 46°54' W 124°06'0 0.0
2015-Mar-27 03:31N 46°54' W 124°06'0 0.0
2015-Mar-27 02:31N 46°54' W 124°06'  
Track history (hours):
 
Tides and Currents Weather Stations Pressure Air Temp Water Temp Dewpoint Dewpoint Depression Visibility Wind Speed Wind Dir Waves Ship Positions

Jamie Marie

Owner: Jamie Marie, Inc., Aberdeen, WA. More information available from US FCC via Universal Licensing System and Coast Guard Vessel Documentation Center.

Last reported at 2015-Apr-01 14:14 UTC. Time now 2015-Apr-01 17:50 UTC.
Position N 47°03' W 124°48'.

Length 30 m.

Type: Fishing. MMSI: 366425240.

Date/timePositionNaut miles runAvg speedWind from/ knotsBaromVisibWave heightAir tempDewpointWater temp
2015-Apr-01 14:14N 47°03' W 124°48'4 5.1
2015-Apr-01 13:28N 47°01' W 124°43'1 0.7
2015-Apr-01 12:33N 47°01' W 124°44'1 0.6
2015-Apr-01 11:33N 47°01' W 124°45'1 0.7
2015-Apr-01 10:32N 47°02' W 124°46'3 3.1
2015-Apr-01 09:32N 47°01' W 124°41'8 7.2
2015-Apr-01 08:29N 46°59' W 124°31'9 7.3
2015-Apr-01 07:16N 46°57' W 124°18'  
2015-Mar-29 13:11N 46°54' W 124°06'0 0.0
2015-Mar-29 12:10N 46°54' W 124°06'0 0.0
2015-Mar-29 05:12N 46°54' W 124°06'0 0.0
2015-Mar-27 16:22N 46°54' W 124°06'0 0.0
2015-Mar-27 14:13N 46°54' W 124°06'0 0.0
2015-Mar-27 13:28N 46°54' W 124°06'0 0.0
2015-Mar-27 12:22N 46°54' W 124°06'0 0.0
2015-Mar-27 11:21N 46°54' W 124°06'0 0.0
2015-Mar-27 10:31N 46°54' W 124°06'0 0.0
2015-Mar-27 09:19N 46°54' W 124°06'0 0.0
2015-Mar-27 08:33N 46°54' W 124°06'0 0.0
2015-Mar-27 06:33N 46°54' W 124°06'0 0.0
2015-Mar-27 05:30N 46°54' W 124°06'0 0.0
2015-Mar-27 04:29N 46°54' W 124°06'0 0.0
2015-Mar-27 03:31N 46°54' W 124°06'0 0.0
2015-Mar-27 02:31N 46°54' W 124°06'  

Dump ship's entire track history